Time;durP1;ratioP1;P1;durP2;ratioP2;P2;SDS_P1;SDS_P2;PMS_P1;PMS_P2;Temp;Humidity;BMP_temperature;BMP_pressure;BME280_temperature;BME280_humidity;BME280_pressure;Samples;Min_cycle;Max_cycle;Signal;HPM_P1;HPM_P2
2020/12/10 00:00:08;;;;;;;18.55;7.18;;;1.30;58.20;;;;;;5052871;28;20029;-69
2020/12/10 00:02:34;;;;;;;16.67;7.43;;;1.40;58.20;;;;;;5053221;28;20021;-70
2020/12/10 00:04:59;;;;;;;18.00;7.43;;;1.40;58.20;;;;;;5053181;28;20028;-69
2020/12/10 00:07:25;;;;;;;23.73;7.85;;;1.50;58.20;;;;;;5053405;28;20021;-70
2020/12/10 00:09:52;;;;;;;14.75;7.45;;;1.60;57.80;;;;;;5053386;28;20048;-69
2020/12/10 00:12:18;;;;;;;16.25;7.28;;;1.50;57.70;;;;;;5052258;28;20409;-70
2020/12/10 00:14:45;;;;;;;15.68;7.47;;;1.60;57.60;;;;;;5053108;28;20052;-70
2020/12/10 00:17:11;;;;;;;16.60;7.75;;;1.50;57.40;;;;;;5052109;28;20028;-70
2020/12/10 00:19:39;;;;;;;13.90;7.78;;;1.40;57.40;;;;;;5053544;28;20033;-70
2020/12/10 00:22:05;;;;;;;13.38;7.05;;;1.40;57.70;;;;;;5053017;28;20075;-70
2020/12/10 00:24:31;;;;;;;14.55;7.70;;;1.40;57.90;;;;;;5053587;28;20387;-70
2020/12/10 00:26:56;;;;;;;19.48;7.85;;;1.50;57.90;;;;;;5053002;28;20051;-70
2020/12/10 00:29:22;;;;;;;17.33;7.97;;;1.50;57.90;;;;;;5052660;28;20368;-73
2020/12/10 00:31:48;;;;;;;18.42;7.68;;;1.50;57.70;;;;;;5053241;28;20021;-69
2020/12/10 00:34:13;;;;;;;16.98;8.15;;;1.50;57.70;;;;;;5053134;28;20048;-69
2020/12/10 00:36:39;;;;;;;17.15;7.93;;;1.40;57.80;;;;;;5051579;28;20025;-69
2020/12/10 00:39:05;;;;;;;18.13;8.60;;;1.30;57.70;;;;;;5052517;28;20037;-70
2020/12/10 00:41:30;;;;;;;17.15;8.18;;;1.30;57.90;;;;;;5051550;28;20028;-70
2020/12/10 00:43:56;;;;;;;19.92;8.25;;;1.30;58.20;;;;;;5052819;28;20017;-69
2020/12/10 00:46:22;;;;;;;20.77;8.30;;;1.30;58.50;;;;;;5052830;28;20025;-69
2020/12/10 00:48:47;;;;;;;16.88;8.15;;;1.40;58.40;;;;;;5052799;28;20029;-70
2020/12/10 00:51:13;;;;;;;16.08;8.10;;;1.40;58.30;;;;;;5052288;28;20460;-73
2020/12/10 00:53:38;;;;;;;17.27;7.78;;;1.40;58.40;;;;;;5052629;28;20092;-70
2020/12/10 00:56:04;;;;;;;21.73;8.07;;;1.50;58.40;;;;;;5052734;28;20465;-69
2020/12/10 00:58:30;;;;;;;16.33;8.45;;;1.50;58.50;;;;;;5051454;28;20021;-69
2020/12/10 01:00:55;;;;;;;16.58;7.72;;;1.50;58.40;;;;;;5034707;28;20384;-70
2020/12/10 01:03:21;;;;;;;14.43;8.65;;;1.50;58.20;;;;;;5052889;28;20025;-69
2020/12/10 01:05:47;;;;;;;19.90;7.95;;;1.50;58.30;;;;;;5052554;28;20063;-69
2020/12/10 01:08:13;;;;;;;20.63;8.52;;;1.40;58.20;;;;;;5052509;28;20035;-69
2020/12/10 01:10:39;;;;;;;20.55;8.38;;;1.40;58.20;;;;;;5054618;28;20132;-70
2020/12/10 01:13:05;;;;;;;16.98;8.38;;;1.40;58.20;;;;;;5056113;28;20109;-69
2020/12/10 01:15:30;;;;;;;19.65;7.93;;;1.40;58.30;;;;;;5055935;28;20021;-69
2020/12/10 01:17:56;;;;;;;15.30;7.50;;;1.50;58.30;;;;;;5055955;28;20032;-69
2020/12/10 01:20:22;;;;;;;22.65;8.82;;;1.50;58.20;;;;;;5056801;28;20060;-70
2020/12/10 01:22:48;;;;;;;17.15;8.55;;;1.50;58.10;;;;;;5056083;28;20092;-69
2020/12/10 01:25:13;;;;;;;21.10;8.65;;;1.40;58.10;;;;;;5055945;28;20099;-70
2020/12/10 01:27:39;;;;;;;18.80;8.07;;;1.50;58.00;;;;;;5055196;28;20025;-70
2020/12/10 01:30:05;;;;;;;17.98;8.32;;;1.40;58.00;;;;;;5055883;28;20021;-70
2020/12/10 01:32:31;;;;;;;18.20;8.18;;;1.40;58.20;;;;;;5037899;28;20024;-70
2020/12/10 01:34:57;;;;;;;20.77;8.50;;;1.40;58.30;;;;;;5055574;28;20021;-70
2020/12/10 01:37:23;;;;;;;19.55;8.27;;;1.40;58.10;;;;;;5054433;28;20040;-70
2020/12/10 01:39:49;;;;;;;23.70;8.68;;;1.40;58.20;;;;;;5055918;28;20453;-70
2020/12/10 01:42:15;;;;;;;17.45;8.85;;;1.30;58.00;;;;;;5055122;28;20017;-71
2020/12/10 01:44:41;;;;;;;18.20;8.55;;;1.30;57.90;;;;;;5055338;28;20467;-70
2020/12/10 01:47:07;;;;;;;23.23;8.25;;;1.20;57.90;;;;;;5055610;28;20079;-70
2020/12/10 01:49:35;;;;;;;21.73;8.57;;;1.10;58.10;;;;;;5055541;28;20100;-70
2020/12/10 01:52:02;;;;;;;21.25;9.13;;;0.90;58.00;;;;;;5070951;28;20025;-71
2020/12/10 01:54:27;;;;;;;19.73;9.20;;;0.80;58.20;;;;;;5055456;28;20024;-70
2020/12/10 01:56:54;;;;;;;21.17;8.30;;;0.70;58.60;;;;;;5055900;28;20448;-71
2020/12/10 01:59:20;;;;;;;14.52;7.40;;;0.60;58.80;;;;;;5055460;28;20033;-70
2020/12/10 02:01:46;;;;;;;19.58;8.10;;;0.60;59.00;;;;;;5055601;28;20025;-70
2020/12/10 02:04:33;;;;;;;18.65;8.63;;;0.50;59.20;;;;;;5055593;28;20313;-69
2020/12/10 02:07:00;;;;;;;16.42;8.30;;;0.60;59.70;;;;;;5055237;28;20021;-69
2020/12/10 02:09:26;;;;;;;20.02;8.20;;;0.60;59.70;;;;;;5055495;28;20048;-69
2020/12/10 02:11:52;;;;;;;20.15;8.98;;;0.70;59.70;;;;;;5055338;28;20025;-69
2020/12/10 02:14:19;;;;;;;19.27;9.07;;;0.80;59.70;;;;;;5053736;28;20050;-70
2020/12/10 02:16:44;;;;;;;18.92;8.00;;;0.90;59.60;;;;;;5053623;28;20021;-69
2020/12/10 02:19:10;;;;;;;15.73;7.60;;;0.90;59.20;;;;;;5054624;28;20029;-70
2020/12/10 02:21:36;;;;;;;17.35;8.45;;;0.90;59.10;;;;;;5054233;28;20028;-69
2020/12/10 02:24:02;;;;;;;18.70;8.00;;;0.80;58.90;;;;;;5054918;28;20032;-70
2020/12/10 02:26:28;;;;;;;17.38;8.10;;;0.80;58.70;;;;;;5054891;28;20465;-70
2020/12/10 02:28:59;;;;;;;18.33;9.18;;;0.70;58.60;;;;;;5053844;28;20028;-69
2020/12/10 02:31:26;;;;;;;26.42;8.45;;;0.70;58.60;;;;;;5054734;28;20031;-71
2020/12/10 02:33:58;;;;;;;18.67;8.52;;;0.60;58.80;;;;;;5054687;28;20453;-70
2020/12/10 02:36:24;;;;;;;17.52;7.93;;;0.50;58.90;;;;;;5053320;28;20053;-70
2020/12/10 02:38:50;;;;;;;18.25;8.18;;;0.50;59.10;;;;;;5054696;28;20365;-70
2020/12/10 02:41:16;;;;;;;19.55;8.70;;;0.50;59.20;;;;;;5053321;28;20031;-69
2020/12/10 02:43:41;;;;;;;17.10;8.38;;;0.50;59.10;;;;;;5054528;28;20098;-70
2020/12/10 02:46:08;;;;;;;18.63;8.20;;;0.50;59.30;;;;;;5054456;28;20021;-69
2020/12/10 02:48:33;;;;;;;15.38;7.43;;;0.50;59.40;;;;;;5054856;28;20052;-68
2020/12/10 02:51:01;;;;;;;17.63;8.38;;;0.60;59.30;;;;;;5054137;28;20472;-69
2020/12/10 02:53:29;;;;;;;19.27;8.20;;;0.60;59.40;;;;;;5054279;28;20470;-69
2020/12/10 02:55:56;;;;;;;20.00;9.10;;;0.60;59.50;;;;;;5054280;28;20036;-69
2020/12/10 02:58:22;;;;;;;17.05;7.53;;;0.60;59.30;;;;;;5054455;28;20233;-70
2020/12/10 03:00:48;;;;;;;17.83;9.25;;;0.70;59.60;;;;;;5053929;28;20442;-70
2020/12/10 03:03:14;;;;;;;21.40;8.98;;;0.70;59.40;;;;;;5054131;28;20032;-68
2020/12/10 03:05:40;;;;;;;21.15;8.55;;;0.70;59.60;;;;;;5054340;28;20016;-70
2020/12/10 03:08:05;;;;;;;21.00;8.50;;;0.80;59.60;;;;;;5054325;28;20464;-69
2020/12/10 03:10:31;;;;;;;24.88;9.48;;;0.80;59.60;;;;;;5053679;28;20366;-70
2020/12/10 03:12:57;;;;;;;22.60;9.70;;;0.90;59.30;;;;;;5054053;28;20021;-70
2020/12/10 03:15:23;;;;;;;20.02;9.00;;;0.90;59.30;;;;;;5053616;28;20028;-71
2020/12/10 03:17:49;;;;;;;18.48;9.20;;;0.80;59.20;;;;;;5053494;28;20480;-69
2020/12/10 03:20:16;;;;;;;21.05;8.98;;;0.80;59.20;;;;;;5053538;28;20411;-70
2020/12/10 03:22:42;;;;;;;26.63;10.00;;;0.70;59.40;;;;;;5054295;28;20024;-71
2020/12/10 03:25:08;;;;;;;21.90;9.60;;;0.70;59.40;;;;;;5053681;28;20096;-70
2020/12/10 03:27:33;;;;;;;21.25;9.35;;;0.70;59.60;;;;;;5053637;28;20032;-70
2020/12/10 03:29:59;;;;;;;20.73;9.45;;;0.70;59.70;;;;;;5053594;28;20050;-69
2020/12/10 03:32:25;;;;;;;20.67;9.50;;;0.70;59.50;;;;;;5053840;28;20098;-69
2020/12/10 03:34:51;;;;;;;20.17;9.60;;;0.70;59.60;;;;;;5053691;28;20025;-70
2020/12/10 03:37:17;;;;;;;28.83;11.23;;;0.70;59.70;;;;;;5051743;28;20032;-69
2020/12/10 03:39:42;;;;;;;22.30;9.02;;;0.80;59.90;;;;;;5053080;28;20029;-70
2020/12/10 03:42:08;;;;;;;20.88;9.40;;;0.80;60.00;;;;;;5052414;28;20021;-70
2020/12/10 03:44:34;;;;;;;20.27;8.88;;;0.90;60.00;;;;;;5052027;28;20020;-70
2020/12/10 03:46:59;;;;;;;17.63;8.70;;;1.00;60.00;;;;;;5053343;28;20021;-69
2020/12/10 03:49:25;;;;;;;20.20;9.38;;;1.00;59.90;;;;;;5053236;28;20025;-70
2020/12/10 03:51:51;;;;;;;19.38;8.35;;;1.00;59.80;;;;;;5053310;28;20025;-70
2020/12/10 03:54:17;;;;;;;16.88;8.23;;;1.00;59.70;;;;;;5053578;28;20025;-70
2020/12/10 03:56:42;;;;;;;21.42;9.52;;;1.00;59.60;;;;;;5053368;28;20021;-69
2020/12/10 03:59:09;;;;;;;27.55;10.55;;;0.90;59.50;;;;;;5053030;28;20029;-69
2020/12/10 04:01:34;;;;;;;25.33;9.52;;;0.90;59.50;;;;;;5052853;28;20340;-70
2020/12/10 04:04:00;;;;;;;23.27;9.35;;;0.70;59.40;;;;;;5053177;28;20024;-69
2020/12/10 04:06:26;;;;;;;18.27;8.77;;;0.60;59.50;;;;;;5053361;28;20021;-68
2020/12/10 04:08:52;;;;;;;24.58;10.43;;;0.60;59.70;;;;;;5053263;28;20370;-70
2020/12/10 04:11:18;;;;;;;23.02;9.93;;;0.40;59.70;;;;;;5053531;28;20017;-70
2020/12/10 04:13:44;;;;;;;20.48;9.45;;;0.30;59.80;;;;;;5053343;28;20027;-71
2020/12/10 04:16:10;;;;;;;19.33;8.88;;;0.30;60.00;;;;;;5053320;28;20021;-70
2020/12/10 04:18:40;;;;;;;23.50;9.77;;;0.20;60.10;;;;;;5053280;28;20107;-70
2020/12/10 04:21:07;;;;;;;26.70;9.73;;;0.20;60.40;;;;;;5053474;28;20426;-69
2020/12/10 04:23:33;;;;;;;17.92;8.20;;;0.10;60.60;;;;;;5053057;28;20071;-69
2020/12/10 04:25:59;;;;;;;20.63;9.30;;;0.10;60.60;;;;;;5052998;28;20079;-69
2020/12/10 04:28:25;;;;;;;39.08;12.05;;;0.10;60.80;;;;;;5052395;28;20028;-69
2020/12/10 04:30:50;;;;;;;28.25;10.52;;;0.00;60.90;;;;;;5052893;28;20427;-69
2020/12/10 04:33:16;;;;;;;24.63;10.27;;;0.00;61.10;;;;;;5052852;28;20028;-69
2020/12/10 04:35:42;;;;;;;19.23;8.63;;;0.00;61.30;;;;;;5051277;28;20078;-69
2020/12/10 04:38:09;;;;;;;22.92;9.27;;;0.00;61.40;;;;;;5052534;28;20029;-69
2020/12/10 04:40:35;;;;;;;18.05;8.98;;;0.10;61.50;;;;;;5052897;28;20056;-70
2020/12/10 04:43:02;;;;;;;19.25;9.02;;;0.00;61.40;;;;;;5053147;28;20021;-70
2020/12/10 04:45:28;;;;;;;19.35;9.35;;;0.00;61.40;;;;;;5055240;28;20154;-70
2020/12/10 04:47:55;;;;;;;23.27;8.80;;;0.00;61.30;;;;;;5056689;28;20460;-69
2020/12/10 04:50:23;;;;;;;27.55;10.27;;;0.00;61.40;;;;;;5056644;28;20025;-69
2020/12/10 04:52:50;;;;;;;23.60;9.48;;;0.00;61.50;;;;;;5056535;28;20025;-70
2020/12/10 04:55:17;;;;;;;22.30;9.38;;;0.10;61.80;;;;;;5056588;28;20083;-71
2020/12/10 04:57:44;;;;;;;18.98;9.23;;;0.20;61.90;;;;;;5056467;28;20346;-69
2020/12/10 05:00:15;;;;;;;23.63;10.23;;;0.20;61.90;;;;;;5056452;28;20033;-71
2020/12/10 05:02:45;;;;;;;22.55;9.73;;;0.30;62.00;;;;;;5056418;28;20028;-69
2020/12/10 05:05:40;;;;;;;20.15;8.82;;;0.50;62.10;;;;;;5056393;28;20369;-70
2020/12/10 05:08:05;;;;;;;23.55;10.13;;;0.60;62.00;;;;;;5047328;28;20380;-70
2020/12/10 05:10:45;;;;;;;26.98;11.35;;;0.80;62.00;;;;;;5056906;28;20061;-70
2020/12/10 05:13:13;;;;;;;25.10;11.60;;;0.90;61.70;;;;;;5056260;28;20024;-70
2020/12/10 05:15:40;;;;;;;23.98;11.32;;;1.00;61.10;;;;;;5056219;28;20024;-70
2020/12/10 05:18:11;;;;;;;30.10;11.35;;;0.90;61.40;;;;;;5055685;28;20103;-71
2020/12/10 05:21:10;;;;;;;33.80;14.27;;;0.90;60.90;;;;;;5056104;28;20131;-71
2020/12/10 05:23:38;;;;;;;31.23;15.93;;;0.90;60.90;;;;;;5021469;28;20029;-70
2020/12/10 05:26:05;;;;;;;34.60;15.98;;;0.90;60.80;;;;;;5055939;28;20150;-71
2020/12/10 05:28:43;;;;;;;37.45;15.80;;;0.90;60.50;;;;;;5055673;28;20553;-69
2020/12/10 05:31:14;;;;;;;29.90;15.70;;;0.90;60.40;;;;;;5056263;28;20024;-70
2020/12/10 05:34:00;;;;;;;33.38;16.50;;;0.80;60.20;;;;;;5055611;28;20108;-69
2020/12/10 05:36:26;;;;;;;;;;;0.70;60.20;;;;;;5056171;28;20368;-70
2020/12/10 05:39:05;;;;;;;39.72;16.13;;;0.70;60.20;;;;;;5055687;28;19951;-70
2020/12/10 05:41:33;;;;;;;29.42;15.15;;;0.70;60.20;;;;;;5056010;28;20025;-69
2020/12/10 05:44:20;;;;;;;34.67;16.70;;;0.70;60.40;;;;;;5055362;28;20059;-69
2020/12/10 05:47:01;;;;;;;34.10;15.45;;;0.60;60.40;;;;;;5055861;28;20017;-71
2020/12/10 05:49:28;;;;;;;30.70;14.75;;;0.70;60.40;;;;;;5055847;28;20025;-70
2020/12/10 05:52:00;;;;;;;33.92;16.60;;;0.70;60.60;;;;;;5055667;28;20484;-71
2020/12/10 05:54:26;;;;;;;39.15;15.48;;;0.70;60.30;;;;;;5053896;28;20424;-70
2020/12/10 05:56:57;;;;;;;34.22;15.20;;;0.70;60.40;;;;;;5055279;28;20032;-70
2020/12/10 05:59:30;;;;;;;31.70;14.48;;;0.70;60.40;;;;;;5054942;28;20036;-71
2020/12/10 06:01:58;;;;;;;38.20;15.90;;;0.70;60.40;;;;;;5055136;28;20105;-70
2020/12/10 06:04:27;;;;;;;39.28;16.73;;;0.70;60.50;;;;;;5055390;28;20021;-71
2020/12/10 06:06:55;;;;;;;39.70;15.43;;;0.80;60.50;;;;;;5055128;28;20043;-71
2020/12/10 06:09:21;;;;;;;37.97;16.02;;;0.80;60.30;;;;;;5055184;28;20048;-71
2020/12/10 06:11:48;;;;;;;41.67;16.90;;;0.80;60.10;;;;;;5055286;28;20434;-71
2020/12/10 06:14:13;;;;;;;39.60;16.52;;;0.80;60.10;;;;;;5053692;28;20076;-71
2020/12/10 06:16:39;;;;;;;33.22;16.00;;;0.90;60.30;;;;;;5055246;28;20453;-70
2020/12/10 06:19:13;;;;;;;35.20;14.43;;;0.90;60.30;;;;;;5055171;28;20036;-70
2020/12/10 06:21:45;;;;;;;31.77;14.23;;;1.00;60.20;;;;;;5054579;28;20070;-71
2020/12/10 06:24:25;;;;;;;33.25;14.88;;;0.90;60.20;;;;;;5054963;28;20056;-71
2020/12/10 06:26:59;;;;;;;29.77;14.63;;;0.90;60.20;;;;;;5053481;28;20453;-70
2020/12/10 06:29:27;;;;;;;37.50;14.32;;;0.90;60.30;;;;;;5054674;28;20013;-71
2020/12/10 06:32:13;;;;;;;29.35;13.07;;;0.90;60.50;;;;;;5054598;28;20437;-71
2020/12/10 06:34:43;;;;;;;32.15;13.85;;;0.90;60.80;;;;;;5054307;28;20537;-71
2020/12/10 06:37:27;;;;;;;32.78;12.98;;;1.00;60.80;;;;;;5054339;28;20055;-71
2020/12/10 06:39:59;;;;;;;30.45;13.73;;;1.10;60.90;;;;;;5054287;28;20032;-71
2020/12/10 06:42:25;;;;;;;25.42;12.05;;;1.20;60.80;;;;;;5054329;28;20041;-71
2020/12/10 06:44:51;;;;;;;29.77;12.57;;;1.20;60.50;;;;;;5053107;28;20067;-70
2020/12/10 06:47:18;;;;;;;34.13;14.30;;;1.20;60.20;;;;;;5054360;28;20021;-71
2020/12/10 06:49:44;;;;;;;34.60;14.48;;;1.30;60.40;;;;;;5054293;28;20093;-71
2020/12/10 06:52:10;;;;;;;31.27;12.48;;;1.30;60.40;;;;;;5054320;28;20103;-70
2020/12/10 06:55:05;;;;;;;29.52;13.52;;;1.30;60.40;;;;;;5054278;28;20025;-71
2020/12/10 06:57:58;;;;;;;30.30;13.63;;;1.30;60.70;;;;;;5052786;28;20117;-70
2020/12/10 07:00:49;;;;;;;34.00;14.43;;;1.30;60.70;;;;;;5053941;28;20036;-71
2020/12/10 07:03:29;;;;;;;36.85;13.65;;;1.40;60.80;;;;;;5054025;28;20029;-71
2020/12/10 07:05:55;;;;;;;27.92;12.57;;;1.50;60.70;;;;;;5054215;28;20021;-72
2020/12/10 07:08:21;;;;;;;29.95;13.40;;;1.50;60.60;;;;;;5053344;28;20108;-70
2020/12/10 07:10:50;;;;;;;29.80;13.15;;;1.50;60.60;;;;;;5054344;28;20076;-71
2020/12/10 07:13:17;;;;;;;30.60;14.20;;;1.50;60.80;;;;;;5053890;28;20027;-70
2020/12/10 07:15:50;;;;;;;27.17;12.40;;;1.50;60.90;;;;;;5053731;28;20079;-69
2020/12/10 07:18:16;;;;;;;35.78;12.40;;;1.60;61.00;;;;;;5054157;28;20025;-71
2020/12/10 07:20:42;;;;;;;26.92;12.35;;;1.60;60.80;;;;;;5054080;28;20035;-71
2020/12/10 07:23:07;;;;;;;32.08;12.68;;;1.60;60.90;;;;;;5053508;28;20029;-72
2020/12/10 07:25:33;;;;;;;31.13;13.40;;;1.60;60.80;;;;;;5053507;28;20024;-71
2020/12/10 07:28:00;;;;;;;36.97;14.35;;;1.60;60.80;;;;;;5053707;28;20040;-70
2020/12/10 07:30:29;;;;;;;29.17;12.68;;;1.60;60.70;;;;;;5054049;28;20029;-70
2020/12/10 07:32:56;;;;;;;34.65;12.43;;;1.50;61.00;;;;;;5054509;28;20395;-72
2020/12/10 07:35:34;;;;;;;30.05;12.68;;;1.60;61.20;;;;;;5054239;28;20036;-69
2020/12/10 07:38:10;;;;;;;32.50;13.27;;;1.60;61.10;;;;;;5053591;28;20041;-69
2020/12/10 07:40:35;;;;;;;32.10;12.25;;;1.60;61.20;;;;;;5053301;28;20522;-71
2020/12/10 07:43:02;;;;;;;32.63;14.65;;;1.60;61.30;;;;;;5053404;28;20044;-70
2020/12/10 07:45:28;;;;;;;33.20;13.88;;;1.60;61.40;;;;;;5053515;28;20066;-70
2020/12/10 07:47:55;;;;;;;32.50;12.60;;;1.70;61.60;;;;;;5053547;28;20508;-74
2020/12/10 07:50:23;;;;;;;35.20;12.25;;;1.80;61.60;;;;;;5052504;28;20025;-72
2020/12/10 07:52:51;;;;;;;35.63;13.65;;;1.80;61.70;;;;;;5053677;28;20066;-74
2020/12/10 07:55:25;;;;;;;30.67;12.75;;;1.90;61.60;;;;;;5053963;28;20017;-72
2020/12/10 07:57:53;;;;;;;44.83;12.90;;;1.90;61.60;;;;;;5052119;28;20039;-75
2020/12/10 08:00:24;;;;;;;30.80;12.45;;;1.90;61.70;;;;;;5053632;28;20027;-72
2020/12/10 08:03:02;;;;;;;34.92;13.45;;;2.00;61.60;;;;;;5054208;28;20342;-75
2020/12/10 08:05:29;;;;;;;29.30;13.32;;;2.10;61.80;;;;;;5053745;28;20056;-72
2020/12/10 08:07:56;;;;;;;33.03;13.70;;;2.10;61.90;;;;;;5052229;28;20443;-72
2020/12/10 08:10:35;;;;;;;30.73;12.50;;;2.20;61.80;;;;;;5053854;28;20049;-72
2020/12/10 08:13:11;;;;;;;37.38;14.30;;;2.30;61.90;;;;;;5053196;28;20497;-73
2020/12/10 08:15:40;;;;;;;37.72;14.35;;;2.30;61.80;;;;;;5053563;28;20023;-72
2020/12/10 08:18:08;;;;;;;28.58;12.52;;;2.40;61.80;;;;;;5053169;28;20029;-72
2020/12/10 08:20:43;;;;;;;31.20;13.63;;;2.40;62.00;;;;;;5055168;28;20090;-73
2020/12/10 08:23:09;;;;;;;31.30;13.18;;;2.50;62.00;;;;;;5057665;28;20017;-73
2020/12/10 08:25:35;;;;;;;31.58;13.00;;;2.60;62.00;;;;;;5057378;28;20088;-72
2020/12/10 08:28:04;;;;;;;24.70;11.68;;;2.60;61.90;;;;;;5056871;28;20082;-72
2020/12/10 08:30:29;;;;;;;37.55;12.52;;;2.70;61.70;;;;;;5057019;28;20472;-73
2020/12/10 08:32:57;;;;;;;27.02;11.85;;;2.80;61.40;;;;;;5057381;28;20032;-72
2020/12/10 08:35:23;;;;;;;23.85;11.43;;;2.80;61.20;;;;;;5057178;28;20029;-73
2020/12/10 08:37:48;;;;;;;42.97;13.65;;;2.70;61.20;;;;;;5057069;28;20120;-72
2020/12/10 08:40:26;;;;;;;39.78;13.05;;;2.70;60.90;;;;;;5056839;28;20107;-73
2020/12/10 08:42:54;;;;;;;33.67;13.70;;;2.70;60.90;;;;;;5056898;28;20036;-75
2020/12/10 08:45:30;;;;;;;33.80;12.68;;;2.70;61.00;;;;;;5056899;28;20051;-73
2020/12/10 08:47:58;;;;;;;36.35;13.93;;;2.70;60.90;;;;;;5057077;28;20048;-73
2020/12/10 08:50:28;;;;;;;35.33;13.57;;;2.60;60.80;;;;;;5056827;28;20024;-73
2020/12/10 08:53:07;;;;;;;38.10;13.50;;;2.60;60.80;;;;;;5056500;28;20021;-72
2020/12/10 08:55:44;;;;;;;40.83;13.10;;;2.50;60.90;;;;;;5056491;28;20486;-73
2020/12/10 08:58:25;;;;;;;29.33;13.43;;;2.40;60.90;;;;;;5057029;28;20021;-73
2020/12/10 09:00:51;;;;;;;35.55;12.80;;;2.30;61.30;;;;;;5057030;28;20044;-73
2020/12/10 09:03:18;;;;;;;39.80;14.32;;;2.40;61.60;;;;;;5056702;28;20029;-72
2020/12/10 09:05:44;;;;;;;37.65;14.40;;;2.40;61.50;;;;;;5056637;28;20148;-73
2020/12/10 09:08:10;;;;;;;33.10;12.88;;;2.50;61.40;;;;;;5056578;28;20360;-74
2020/12/10 09:10:37;;;;;;;31.00;13.57;;;2.50;61.30;;;;;;5056806;28;20445;-73
2020/12/10 09:13:04;;;;;;;37.00;15.00;;;2.40;61.00;;;;;;5056527;28;20028;-72
2020/12/10 09:15:30;;;;;;;37.80;15.70;;;2.30;61.00;;;;;;5055053;28;20116;-72
2020/12/10 09:17:56;;;;;;;41.92;15.10;;;2.30;61.50;;;;;;5056480;28;20028;-73
2020/12/10 09:20:23;;;;;;;38.38;14.80;;;2.40;61.90;;;;;;5056331;28;20080;-73
2020/12/10 09:22:49;;;;;;;35.58;14.65;;;2.50;61.80;;;;;;5056317;28;20029;-72
2020/12/10 09:25:14;;;;;;;38.47;14.40;;;2.60;61.60;;;;;;5056303;28;20103;-72
2020/12/10 09:27:40;;;;;;;34.22;14.05;;;2.60;61.40;;;;;;5055341;28;20021;-72
2020/12/10 09:30:08;;;;;;;30.90;13.43;;;2.70;61.50;;;;;;5055807;28;20365;-73
2020/12/10 09:32:36;;;;;;;33.95;14.40;;;2.80;61.30;;;;;;5054733;28;20021;-72
2020/12/10 09:35:05;;;;;;;34.67;14.32;;;2.80;61.20;;;;;;5055848;28;20448;-72
2020/12/10 09:37:30;;;;;;;31.73;14.38;;;2.90;60.90;;;;;;5055147;28;20057;-71
2020/12/10 09:39:56;;;;;;;35.72;13.07;;;2.90;60.80;;;;;;5056172;28;20448;-72
2020/12/10 09:42:22;;;;;;;34.30;14.18;;;2.80;60.30;;;;;;5055657;28;20029;-72
2020/12/10 09:44:48;;;;;;;34.80;13.32;;;2.70;60.50;;;;;;5055642;28;20047;-73
2020/12/10 09:47:13;;;;;;;36.97;13.98;;;2.60;60.30;;;;;;5054716;28;20029;-73
2020/12/10 09:49:39;;;;;;;33.60;13.98;;;2.50;60.40;;;;;;5055884;28;20020;-72
2020/12/10 09:52:06;;;;;;;40.95;14.77;;;2.50;60.80;;;;;;5055657;28;20025;-73
2020/12/10 09:54:57;;;;;;;36.95;14.38;;;2.40;61.10;;;;;;5056219;28;20024;-73
2020/12/10 09:59:48;;;;;;;39.28;13.98;;;2.50;61.60;;;;;;5055503;28;20025;-73
2020/12/10 10:02:16;;;;;;;38.55;15.35;;;2.50;61.10;;;;;;5055454;28;20025;-73
2020/12/10 10:04:42;;;;;;;42.22;13.20;;;2.40;61.00;;;;;;5055179;28;20025;-72
2020/12/10 10:07:08;;;;;;;39.67;14.68;;;2.40;61.00;;;;;;5055758;28;20438;-72
2020/12/10 10:09:35;;;;;;;33.67;14.05;;;2.40;61.10;;;;;;5055571;28;20041;-73
2020/12/10 10:12:01;;;;;;;30.52;13.00;;;2.40;62.10;;;;;;5055496;28;20470;-73
2020/12/10 10:14:26;;;;;;;30.33;13.10;;;2.50;61.60;;;;;;5056200;28;20025;-74
2020/12/10 10:16:54;;;;;;;32.75;13.30;;;2.50;61.40;;;;;;5055508;28;20346;-72
2020/12/10 10:19:19;;;;;;;34.33;14.50;;;2.40;61.20;;;;;;5053957;28;20036;-73
2020/12/10 10:21:45;;;;;;;33.22;13.60;;;2.40;61.40;;;;;;5054998;28;20457;-73
2020/12/10 10:24:11;;;;;;;32.67;13.52;;;2.40;61.40;;;;;;5055450;28;20100;-72
2020/12/10 10:26:37;;;;;;;36.72;14.20;;;2.50;61.50;;;;;;5054782;28;20052;-73
2020/12/10 10:29:06;;;;;;;35.28;13.73;;;2.50;61.40;;;;;;5055303;28;20017;-74
2020/12/10 10:31:32;;;;;;;31.30;13.38;;;2.50;61.40;;;;;;5055005;28;20108;-73
2020/12/10 10:33:58;;;;;;;33.35;12.70;;;2.50;61.40;;;;;;5055439;28;20109;-74
2020/12/10 10:36:23;;;;;;;32.70;13.38;;;2.60;61.40;;;;;;5054929;28;20476;-72
2020/12/10 10:38:49;;;;;;;34.17;13.30;;;2.60;61.30;;;;;;5054380;28;20029;-71
2020/12/10 10:41:15;;;;;;;35.20;13.35;;;2.60;61.20;;;;;;5054992;28;20091;-73
2020/12/10 10:43:41;;;;;;;33.88;14.50;;;2.50;61.20;;;;;;5054441;28;20429;-72
2020/12/10 10:46:06;;;;;;;36.92;13.15;;;2.50;61.90;;;;;;5054764;28;20071;-72
2020/12/10 10:48:32;;;;;;;28.88;13.57;;;2.50;61.30;;;;;;5053474;28;20029;-74
2020/12/10 10:50:58;;;;;;;31.70;14.25;;;2.50;61.30;;;;;;5054845;28;20438;-72
2020/12/10 10:53:23;;;;;;;29.08;13.20;;;2.60;61.40;;;;;;5054410;28;20083;-73
2020/12/10 10:55:50;;;;;;;32.92;12.80;;;2.60;61.10;;;;;;5054667;28;20025;-73
2020/12/10 10:58:16;;;;;;;35.53;14.13;;;2.50;61.20;;;;;;5054027;28;20025;-73
2020/12/10 11:00:47;;;;;;;32.65;12.68;;;2.50;61.20;;;;;;5054305;28;20021;-73
2020/12/10 11:03:14;;;;;;;27.48;14.70;;;2.50;61.40;;;;;;5055316;28;20024;-71
2020/12/10 11:05:39;;;;;;;30.90;13.55;;;2.50;61.20;;;;;;5054134;28;20024;-74
2020/12/10 11:08:05;;;;;;;32.92;13.27;;;2.50;61.10;;;;;;5054758;28;20029;-73
2020/12/10 11:10:31;;;;;;;36.03;12.98;;;2.60;61.20;;;;;;5054759;28;20049;-72
2020/12/10 11:12:57;;;;;;;33.85;13.55;;;2.60;61.10;;;;;;5054867;28;20131;-72
2020/12/10 11:15:23;;;;;;;32.35;13.43;;;2.60;61.10;;;;;;5054549;28;20017;-74
2020/12/10 11:17:49;;;;;;;31.05;13.00;;;2.70;60.90;;;;;;5054269;28;20060;-72
2020/12/10 11:20:15;;;;;;;28.05;12.63;;;2.60;60.90;;;;;;5054170;28;20063;-71
2020/12/10 11:22:41;;;;;;;28.77;14.10;;;2.60;60.50;;;;;;5054257;28;20025;-73
2020/12/10 11:25:07;;;;;;;41.58;12.68;;;2.60;61.40;;;;;;5052710;28;20032;-74
2020/12/10 11:27:33;;;;;;;34.45;13.77;;;2.60;60.80;;;;;;5053631;28;20095;-73
2020/12/10 11:29:59;;;;;;;33.38;13.50;;;2.50;60.70;;;;;;5053884;28;20017;-73
2020/12/10 11:32:25;;;;;;;28.85;12.65;;;2.60;60.80;;;;;;5054043;28;20024;-72
2020/12/10 11:34:51;;;;;;;27.48;11.55;;;2.60;60.80;;;;;;5053920;28;20360;-73
2020/12/10 11:37:17;;;;;;;28.40;12.10;;;2.60;60.70;;;;;;5053702;28;20021;-73
2020/12/10 11:39:42;;;;;;;34.45;13.90;;;2.60;60.60;;;;;;5053382;28;20063;-72
2020/12/10 11:42:09;;;;;;;26.88;13.13;;;2.60;60.80;;;;;;5053517;28;20017;-72
2020/12/10 11:44:35;;;;;;;32.30;14.05;;;2.50;60.60;;;;;;5053902;28;20021;-72
2020/12/10 11:47:00;;;;;;;29.30;13.93;;;2.50;60.60;;;;;;5053675;28;20021;-73
2020/12/10 11:49:26;;;;;;;27.25;12.63;;;2.50;60.70;;;;;;5053712;28;20028;-73
2020/12/10 11:51:52;;;;;;;30.63;13.02;;;2.50;60.60;;;;;;5053477;28;20334;-73
2020/12/10 11:54:17;;;;;;;49.55;14.98;;;2.50;60.60;;;;;;5053588;28;20032;-72
2020/12/10 11:56:43;;;;;;;29.88;12.57;;;2.40;60.50;;;;;;5052932;28;20437;-73
2020/12/10 11:59:09;;;;;;;27.75;11.75;;;2.40;60.80;;;;;;5052066;28;20104;-72
2020/12/10 12:01:38;;;;;;;35.58;13.55;;;2.40;60.90;;;;;;5053190;28;20028;-73
2020/12/10 12:04:04;;;;;;;35.40;13.20;;;2.50;61.00;;;;;;5052099;28;20071;-72
2020/12/10 12:06:30;;;;;;;27.63;12.93;;;2.50;61.00;;;;;;5053596;28;20028;-73
2020/12/10 12:08:55;;;;;;;34.10;13.30;;;2.50;61.00;;;;;;5053336;28;20078;-73
2020/12/10 12:11:25;;;;;;;35.30;13.48;;;2.50;61.00;;;;;;5054127;28;20025;-73
2020/12/10 12:13:51;;;;;;;33.35;14.07;;;2.50;60.90;;;;;;5053550;28;20017;-73
2020/12/10 12:16:18;;;;;;;34.38;13.02;;;2.50;61.00;;;;;;5052943;28;20068;-74
2020/12/10 12:18:44;;;;;;;30.73;13.50;;;2.40;61.10;;;;;;5053869;28;20102;-73
2020/12/10 12:21:10;;;;;;;32.75;13.70;;;2.40;61.10;;;;;;5053677;28;20107;-72
2020/12/10 12:23:35;;;;;;;32.20;13.93;;;2.40;61.20;;;;;;5053535;28;20020;-73
2020/12/10 12:26:01;;;;;;;40.05;14.48;;;2.40;61.20;;;;;;5053613;28;20303;-73
2020/12/10 12:28:28;;;;;;;33.58;14.07;;;2.30;61.40;;;;;;5052001;28;20032;-74
2020/12/10 12:30:54;;;;;;;30.95;13.68;;;2.40;61.70;;;;;;5052383;28;20353;-73
2020/12/10 12:33:20;;;;;;;40.47;15.50;;;2.40;61.90;;;;;;5052047;28;20017;-74
2020/12/10 12:35:47;;;;;;;42.20;15.00;;;2.40;61.70;;;;;;5051813;28;20109;-73
2020/12/10 12:38:13;;;;;;;34.80;14.73;;;2.50;61.80;;;;;;5053060;28;20021;-73
2020/12/10 12:40:39;;;;;;;34.90;13.75;;;2.50;61.80;;;;;;5053128;28;20509;-73
2020/12/10 12:43:05;;;;;;;41.55;15.20;;;2.60;61.80;;;;;;5052776;28;20059;-73
2020/12/10 12:45:31;;;;;;;37.55;15.38;;;2.60;62.50;;;;;;5053142;28;20021;-73